sensor_id;sensor_type;location;lat;lon;timestamp;P1;durP1;ratioP1;P2;durP2;ratioP2
4307;SDS011;2167;53.448;9.984;2022-08-19T00:00:35;5.10;;;4.17;;
4307;SDS011;2167;53.448;9.984;2022-08-19T00:03:02;8.43;;;4.57;;
4307;SDS011;2167;53.448;9.984;2022-08-19T00:05:29;4.50;;;3.97;;
4307;SDS011;2167;53.448;9.984;2022-08-19T00:07:55;4.93;;;4.10;;
4307;SDS011;2167;53.448;9.984;2022-08-19T00:10:21;5.37;;;4.70;;
4307;SDS011;2167;53.448;9.984;2022-08-19T00:12:47;5.07;;;4.37;;
4307;SDS011;2167;53.448;9.984;2022-08-19T00:15:14;4.77;;;3.67;;
4307;SDS011;2167;53.448;9.984;2022-08-19T00:17:42;6.83;;;5.27;;
4307;SDS011;2167;53.448;9.984;2022-08-19T00:20:09;5.10;;;4.00;;
4307;SDS011;2167;53.448;9.984;2022-08-19T00:22:37;6.43;;;4.77;;
4307;SDS011;2167;53.448;9.984;2022-08-19T00:25:04;5.30;;;4.50;;
4307;SDS011;2167;53.448;9.984;2022-08-19T00:27:31;8.20;;;5.43;;
4307;SDS011;2167;53.448;9.984;2022-08-19T00:29:56;6.90;;;4.73;;
4307;SDS011;2167;53.448;9.984;2022-08-19T00:32:23;10.00;;;5.30;;
4307;SDS011;2167;53.448;9.984;2022-08-19T00:34:50;6.63;;;4.97;;
4307;SDS011;2167;53.448;9.984;2022-08-19T00:37:21;8.00;;;5.17;;
4307;SDS011;2167;53.448;9.984;2022-08-19T00:39:49;4.93;;;4.37;;
4307;SDS011;2167;53.448;9.984;2022-08-19T00:42:16;7.93;;;5.37;;
4307;SDS011;2167;53.448;9.984;2022-08-19T00:44:43;5.80;;;4.23;;
4307;SDS011;2167;53.448;9.984;2022-08-19T00:47:09;4.30;;;3.90;;
4307;SDS011;2167;53.448;9.984;2022-08-19T00:49:43;4.53;;;3.83;;
4307;SDS011;2167;53.448;9.984;2022-08-19T00:52:20;5.93;;;3.73;;
4307;SDS011;2167;53.448;9.984;2022-08-19T00:54:49;6.43;;;4.67;;
4307;SDS011;2167;53.448;9.984;2022-08-19T00:57:18;5.97;;;4.57;;
4307;SDS011;2167;53.448;9.984;2022-08-19T00:59:51;8.37;;;4.30;;
4307;SDS011;2167;53.448;9.984;2022-08-19T01:02:19;5.87;;;4.00;;
4307;SDS011;2167;53.448;9.984;2022-08-19T01:04:45;7.20;;;5.30;;
4307;SDS011;2167;53.448;9.984;2022-08-19T01:07:10;5.77;;;4.17;;
4307;SDS011;2167;53.448;9.984;2022-08-19T01:09:37;5.30;;;4.50;;
4307;SDS011;2167;53.448;9.984;2022-08-19T01:12:02;10.23;;;5.10;;
4307;SDS011;2167;53.448;9.984;2022-08-19T01:14:29;5.40;;;4.30;;
4307;SDS011;2167;53.448;9.984;2022-08-19T01:16:55;8.33;;;5.10;;
4307;SDS011;2167;53.448;9.984;2022-08-19T01:19:26;7.70;;;5.93;;
4307;SDS011;2167;53.448;9.984;2022-08-19T01:21:57;6.20;;;4.70;;
4307;SDS011;2167;53.448;9.984;2022-08-19T01:24:33;8.07;;;4.43;;
4307;SDS011;2167;53.448;9.984;2022-08-19T01:26:59;10.27;;;4.60;;
4307;SDS011;2167;53.448;9.984;2022-08-19T01:29:28;7.07;;;4.47;;
4307;SDS011;2167;53.448;9.984;2022-08-19T01:31:54;8.00;;;4.30;;
4307;SDS011;2167;53.448;9.984;2022-08-19T01:34:19;6.77;;;4.60;;
4307;SDS011;2167;53.448;9.984;2022-08-19T01:36:45;12.00;;;5.50;;
4307;SDS011;2167;53.448;9.984;2022-08-19T01:39:17;11.53;;;6.10;;
4307;SDS011;2167;53.448;9.984;2022-08-19T01:41:45;10.37;;;4.90;;
4307;SDS011;2167;53.448;9.984;2022-08-19T01:44:12;6.20;;;4.33;;
4307;SDS011;2167;53.448;9.984;2022-08-19T01:46:38;7.37;;;4.90;;
4307;SDS011;2167;53.448;9.984;2022-08-19T01:49:04;5.60;;;5.10;;
4307;SDS011;2167;53.448;9.984;2022-08-19T01:51:31;7.27;;;5.17;;
4307;SDS011;2167;53.448;9.984;2022-08-19T01:53:57;7.47;;;4.97;;
4307;SDS011;2167;53.448;9.984;2022-08-19T01:56:23;8.23;;;5.67;;
4307;SDS011;2167;53.448;9.984;2022-08-19T01:58:49;8.63;;;5.17;;
4307;SDS011;2167;53.448;9.984;2022-08-19T02:01:18;6.27;;;4.57;;
4307;SDS011;2167;53.448;9.984;2022-08-19T02:03:44;9.90;;;5.73;;
4307;SDS011;2167;53.448;9.984;2022-08-19T02:06:10;6.47;;;4.97;;
4307;SDS011;2167;53.448;9.984;2022-08-19T02:08:37;6.40;;;5.10;;
4307;SDS011;2167;53.448;9.984;2022-08-19T02:11:05;7.90;;;5.30;;
4307;SDS011;2167;53.448;9.984;2022-08-19T02:13:31;10.73;;;5.40;;
4307;SDS011;2167;53.448;9.984;2022-08-19T02:15:58;8.90;;;5.40;;
4307;SDS011;2167;53.448;9.984;2022-08-19T02:18:24;12.20;;;5.17;;
4307;SDS011;2167;53.448;9.984;2022-08-19T02:20:51;5.60;;;4.70;;
4307;SDS011;2167;53.448;9.984;2022-08-19T02:23:17;6.83;;;6.03;;
4307;SDS011;2167;53.448;9.984;2022-08-19T02:25:43;8.93;;;5.40;;
4307;SDS011;2167;53.448;9.984;2022-08-19T02:28:10;6.57;;;5.43;;
4307;SDS011;2167;53.448;9.984;2022-08-19T02:30:37;9.37;;;5.47;;
4307;SDS011;2167;53.448;9.984;2022-08-19T02:33:03;12.80;;;5.17;;
4307;SDS011;2167;53.448;9.984;2022-08-19T02:35:30;7.90;;;5.70;;
4307;SDS011;2167;53.448;9.984;2022-08-19T02:37:55;8.53;;;6.10;;
4307;SDS011;2167;53.448;9.984;2022-08-19T02:40:40;9.90;;;5.57;;
4307;SDS011;2167;53.448;9.984;2022-08-19T02:43:07;13.30;;;5.50;;
4307;SDS011;2167;53.448;9.984;2022-08-19T02:45:34;8.83;;;5.97;;
4307;SDS011;2167;53.448;9.984;2022-08-19T02:48:01;26.30;;;7.03;;
4307;SDS011;2167;53.448;9.984;2022-08-19T02:50:27;10.33;;;6.53;;
4307;SDS011;2167;53.448;9.984;2022-08-19T02:52:54;12.33;;;7.77;;
4307;SDS011;2167;53.448;9.984;2022-08-19T02:55:19;11.67;;;7.50;;
4307;SDS011;2167;53.448;9.984;2022-08-19T02:57:45;17.23;;;8.10;;
4307;SDS011;2167;53.448;9.984;2022-08-19T03:00:12;18.60;;;9.50;;
4307;SDS011;2167;53.448;9.984;2022-08-19T03:02:38;19.80;;;9.77;;
4307;SDS011;2167;53.448;9.984;2022-08-19T03:05:04;16.13;;;9.57;;
4307;SDS011;2167;53.448;9.984;2022-08-19T03:07:31;23.93;;;11.80;;
4307;SDS011;2167;53.448;9.984;2022-08-19T03:09:57;19.17;;;11.03;;
4307;SDS011;2167;53.448;9.984;2022-08-19T03:12:23;20.60;;;9.77;;
4307;SDS011;2167;53.448;9.984;2022-08-19T03:14:48;20.53;;;10.00;;
4307;SDS011;2167;53.448;9.984;2022-08-19T03:17:14;17.23;;;10.40;;
4307;SDS011;2167;53.448;9.984;2022-08-19T03:19:40;21.23;;;9.97;;
4307;SDS011;2167;53.448;9.984;2022-08-19T03:22:06;19.33;;;10.63;;
4307;SDS011;2167;53.448;9.984;2022-08-19T03:24:32;18.53;;;9.17;;
4307;SDS011;2167;53.448;9.984;2022-08-19T03:26:58;21.43;;;9.57;;
4307;SDS011;2167;53.448;9.984;2022-08-19T03:29:25;17.23;;;9.33;;
4307;SDS011;2167;53.448;9.984;2022-08-19T03:31:52;15.87;;;9.20;;
4307;SDS011;2167;53.448;9.984;2022-08-19T03:34:20;16.60;;;8.57;;
4307;SDS011;2167;53.448;9.984;2022-08-19T03:36:51;11.60;;;7.60;;
4307;SDS011;2167;53.448;9.984;2022-08-19T03:39:17;17.77;;;9.03;;
4307;SDS011;2167;53.448;9.984;2022-08-19T03:41:44;13.17;;;8.20;;
4307;SDS011;2167;53.448;9.984;2022-08-19T03:44:10;14.43;;;8.50;;
4307;SDS011;2167;53.448;9.984;2022-08-19T03:46:39;16.60;;;8.70;;
4307;SDS011;2167;53.448;9.984;2022-08-19T03:49:04;16.13;;;8.37;;
4307;SDS011;2167;53.448;9.984;2022-08-19T03:51:34;11.90;;;7.80;;
4307;SDS011;2167;53.448;9.984;2022-08-19T03:54:02;25.00;;;10.53;;
4307;SDS011;2167;53.448;9.984;2022-08-19T03:56:33;13.97;;;8.80;;
4307;SDS011;2167;53.448;9.984;2022-08-19T03:59:03;15.33;;;8.77;;
4307;SDS011;2167;53.448;9.984;2022-08-19T04:01:30;16.10;;;10.40;;
4307;SDS011;2167;53.448;9.984;2022-08-19T04:03:56;15.67;;;9.83;;
4307;SDS011;2167;53.448;9.984;2022-08-19T04:06:24;17.10;;;9.10;;
4307;SDS011;2167;53.448;9.984;2022-08-19T04:08:52;20.97;;;9.40;;
4307;SDS011;2167;53.448;9.984;2022-08-19T04:11:20;16.50;;;8.90;;
4307;SDS011;2167;53.448;9.984;2022-08-19T04:13:48;17.70;;;9.80;;
4307;SDS011;2167;53.448;9.984;2022-08-19T04:16:19;20.13;;;9.00;;
4307;SDS011;2167;53.448;9.984;2022-08-19T04:18:46;19.73;;;9.37;;
4307;SDS011;2167;53.448;9.984;2022-08-19T04:21:17;19.87;;;8.87;;
4307;SDS011;2167;53.448;9.984;2022-08-19T04:23:44;20.33;;;9.03;;
4307;SDS011;2167;53.448;9.984;2022-08-19T04:26:14;14.33;;;8.17;;
4307;SDS011;2167;53.448;9.984;2022-08-19T04:28:42;15.00;;;9.20;;
4307;SDS011;2167;53.448;9.984;2022-08-19T04:31:12;17.77;;;8.43;;
4307;SDS011;2167;53.448;9.984;2022-08-19T04:33:40;22.53;;;9.23;;
4307;SDS011;2167;53.448;9.984;2022-08-19T04:36:06;15.43;;;9.33;;
4307;SDS011;2167;53.448;9.984;2022-08-19T04:38:32;16.47;;;9.13;;
4307;SDS011;2167;53.448;9.984;2022-08-19T04:40:58;19.60;;;10.50;;
4307;SDS011;2167;53.448;9.984;2022-08-19T04:43:42;24.17;;;9.50;;
4307;SDS011;2167;53.448;9.984;2022-08-19T04:46:13;19.33;;;8.93;;
4307;SDS011;2167;53.448;9.984;2022-08-19T04:48:39;15.17;;;9.07;;
4307;SDS011;2167;53.448;9.984;2022-08-19T04:51:06;19.70;;;9.97;;
4307;SDS011;2167;53.448;9.984;2022-08-19T04:53:35;18.20;;;10.07;;
4307;SDS011;2167;53.448;9.984;2022-08-19T04:56:04;21.70;;;9.27;;
4307;SDS011;2167;53.448;9.984;2022-08-19T04:58:32;17.07;;;9.70;;
4307;SDS011;2167;53.448;9.984;2022-08-19T05:00:58;25.17;;;9.37;;
4307;SDS011;2167;53.448;9.984;2022-08-19T05:03:25;18.67;;;9.63;;
4307;SDS011;2167;53.448;9.984;2022-08-19T05:05:51;15.47;;;8.20;;
4307;SDS011;2167;53.448;9.984;2022-08-19T05:08:17;18.23;;;9.83;;
4307;SDS011;2167;53.448;9.984;2022-08-19T05:10:46;23.17;;;11.77;;
4307;SDS011;2167;53.448;9.984;2022-08-19T05:13:13;22.60;;;12.40;;
4307;SDS011;2167;53.448;9.984;2022-08-19T05:15:40;25.47;;;10.80;;
4307;SDS011;2167;53.448;9.984;2022-08-19T05:18:05;20.57;;;11.07;;
4307;SDS011;2167;53.448;9.984;2022-08-19T05:20:50;22.67;;;10.10;;
4307;SDS011;2167;53.448;9.984;2022-08-19T05:23:34;19.33;;;11.07;;
4307;SDS011;2167;53.448;9.984;2022-08-19T05:25:59;19.53;;;11.27;;
4307;SDS011;2167;53.448;9.984;2022-08-19T05:28:25;21.83;;;10.17;;
4307;SDS011;2167;53.448;9.984;2022-08-19T05:30:51;17.53;;;9.30;;
4307;SDS011;2167;53.448;9.984;2022-08-19T05:33:17;23.43;;;10.33;;
4307;SDS011;2167;53.448;9.984;2022-08-19T05:35:43;20.47;;;9.47;;
4307;SDS011;2167;53.448;9.984;2022-08-19T05:38:09;20.57;;;11.13;;
4307;SDS011;2167;53.448;9.984;2022-08-19T05:40:36;16.70;;;10.17;;
4307;SDS011;2167;53.448;9.984;2022-08-19T05:43:03;19.43;;;12.00;;
4307;SDS011;2167;53.448;9.984;2022-08-19T05:45:30;20.40;;;9.80;;
4307;SDS011;2167;53.448;9.984;2022-08-19T05:47:56;22.27;;;10.20;;
4307;SDS011;2167;53.448;9.984;2022-08-19T05:50:23;20.77;;;11.90;;
4307;SDS011;2167;53.448;9.984;2022-08-19T05:52:51;20.40;;;11.50;;
4307;SDS011;2167;53.448;9.984;2022-08-19T05:55:18;21.30;;;11.27;;
4307;SDS011;2167;53.448;9.984;2022-08-19T05:57:45;16.30;;;9.73;;
4307;SDS011;2167;53.448;9.984;2022-08-19T06:00:12;23.23;;;10.20;;
4307;SDS011;2167;53.448;9.984;2022-08-19T06:02:38;23.07;;;10.93;;
4307;SDS011;2167;53.448;9.984;2022-08-19T06:05:05;23.97;;;10.83;;
4307;SDS011;2167;53.448;9.984;2022-08-19T06:07:32;23.97;;;11.53;;
4307;SDS011;2167;53.448;9.984;2022-08-19T06:09:58;21.23;;;10.77;;
4307;SDS011;2167;53.448;9.984;2022-08-19T06:12:23;19.67;;;10.83;;
4307;SDS011;2167;53.448;9.984;2022-08-19T06:14:56;19.53;;;10.57;;
4307;SDS011;2167;53.448;9.984;2022-08-19T06:17:22;19.00;;;10.87;;
4307;SDS011;2167;53.448;9.984;2022-08-19T06:19:50;18.50;;;11.10;;
4307;SDS011;2167;53.448;9.984;2022-08-19T06:22:16;20.50;;;10.27;;
4307;SDS011;2167;53.448;9.984;2022-08-19T06:24:42;15.30;;;10.03;;
4307;SDS011;2167;53.448;9.984;2022-08-19T06:27:08;17.10;;;9.83;;
4307;SDS011;2167;53.448;9.984;2022-08-19T06:29:33;19.87;;;10.30;;
4307;SDS011;2167;53.448;9.984;2022-08-19T06:32:00;20.67;;;11.03;;
4307;SDS011;2167;53.448;9.984;2022-08-19T06:34:29;16.90;;;10.77;;
4307;SDS011;2167;53.448;9.984;2022-08-19T06:36:58;18.10;;;11.10;;
4307;SDS011;2167;53.448;9.984;2022-08-19T06:39:27;21.37;;;12.20;;
4307;SDS011;2167;53.448;9.984;2022-08-19T06:41:56;16.13;;;10.60;;
4307;SDS011;2167;53.448;9.984;2022-08-19T06:44:24;20.30;;;10.50;;
4307;SDS011;2167;53.448;9.984;2022-08-19T06:46:52;22.60;;;10.43;;
4307;SDS011;2167;53.448;9.984;2022-08-19T06:49:19;27.20;;;11.73;;
4307;SDS011;2167;53.448;9.984;2022-08-19T06:51:45;24.13;;;11.03;;
4307;SDS011;2167;53.448;9.984;2022-08-19T06:54:13;26.43;;;11.17;;
4307;SDS011;2167;53.448;9.984;2022-08-19T06:56:40;21.77;;;10.93;;
4307;SDS011;2167;53.448;9.984;2022-08-19T06:59:17;18.33;;;10.13;;
4307;SDS011;2167;53.448;9.984;2022-08-19T07:01:55;23.63;;;10.40;;
4307;SDS011;2167;53.448;9.984;2022-08-19T07:04:26;20.73;;;9.77;;
4307;SDS011;2167;53.448;9.984;2022-08-19T07:07:06;16.90;;;9.70;;
4307;SDS011;2167;53.448;9.984;2022-08-19T07:09:35;14.50;;;8.17;;
4307;SDS011;2167;53.448;9.984;2022-08-19T07:12:03;19.07;;;10.23;;
4307;SDS011;2167;53.448;9.984;2022-08-19T07:14:31;12.67;;;7.70;;
4307;SDS011;2167;53.448;9.984;2022-08-19T07:17:00;13.20;;;7.97;;
4307;SDS011;2167;53.448;9.984;2022-08-19T07:19:26;12.43;;;7.30;;
4307;SDS011;2167;53.448;9.984;2022-08-19T07:21:52;13.70;;;8.73;;
4307;SDS011;2167;53.448;9.984;2022-08-19T07:24:20;13.53;;;7.90;;
4307;SDS011;2167;53.448;9.984;2022-08-19T07:26:49;11.37;;;6.30;;
4307;SDS011;2167;53.448;9.984;2022-08-19T07:29:16;11.70;;;6.27;;
4307;SDS011;2167;53.448;9.984;2022-08-19T07:31:42;8.47;;;6.40;;
4307;SDS011;2167;53.448;9.984;2022-08-19T07:34:09;12.50;;;7.37;;
4307;SDS011;2167;53.448;9.984;2022-08-19T07:36:39;12.40;;;6.70;;
4307;SDS011;2167;53.448;9.984;2022-08-19T07:39:08;12.20;;;7.00;;
4307;SDS011;2167;53.448;9.984;2022-08-19T07:41:37;10.60;;;7.30;;
4307;SDS011;2167;53.448;9.984;2022-08-19T07:44:03;14.53;;;8.73;;
4307;SDS011;2167;53.448;9.984;2022-08-19T07:46:31;13.90;;;8.03;;
4307;SDS011;2167;53.448;9.984;2022-08-19T07:48:56;24.00;;;10.07;;
4307;SDS011;2167;53.448;9.984;2022-08-19T07:51:22;12.27;;;6.93;;
4307;SDS011;2167;53.448;9.984;2022-08-19T07:53:48;15.53;;;7.60;;
4307;SDS011;2167;53.448;9.984;2022-08-19T07:56:18;13.07;;;6.73;;
4307;SDS011;2167;53.448;9.984;2022-08-19T07:58:45;10.20;;;7.03;;
4307;SDS011;2167;53.448;9.984;2022-08-19T08:01:14;13.90;;;8.60;;
4307;SDS011;2167;53.448;9.984;2022-08-19T08:03:42;15.73;;;8.50;;
4307;SDS011;2167;53.448;9.984;2022-08-19T08:06:27;11.60;;;7.10;;
4307;SDS011;2167;53.448;9.984;2022-08-19T08:09:12;13.30;;;7.27;;
4307;SDS011;2167;53.448;9.984;2022-08-19T08:11:54;10.23;;;6.37;;
4307;SDS011;2167;53.448;9.984;2022-08-19T08:14:33;14.20;;;6.93;;
4307;SDS011;2167;53.448;9.984;2022-08-19T08:17:03;11.30;;;6.43;;
4307;SDS011;2167;53.448;9.984;2022-08-19T08:19:29;7.93;;;6.37;;
4307;SDS011;2167;53.448;9.984;2022-08-19T08:21:57;11.67;;;7.87;;
4307;SDS011;2167;53.448;9.984;2022-08-19T08:24:25;9.60;;;6.67;;
4307;SDS011;2167;53.448;9.984;2022-08-19T08:26:52;11.83;;;7.63;;
4307;SDS011;2167;53.448;9.984;2022-08-19T08:29:18;13.80;;;7.13;;
4307;SDS011;2167;53.448;9.984;2022-08-19T08:31:44;17.73;;;6.63;;
4307;SDS011;2167;53.448;9.984;2022-08-19T08:34:11;9.57;;;7.20;;
4307;SDS011;2167;53.448;9.984;2022-08-19T08:36:39;17.57;;;9.13;;
4307;SDS011;2167;53.448;9.984;2022-08-19T08:39:10;17.30;;;7.20;;
4307;SDS011;2167;53.448;9.984;2022-08-19T08:41:44;12.80;;;8.07;;
4307;SDS011;2167;53.448;9.984;2022-08-19T08:44:20;13.47;;;6.87;;
4307;SDS011;2167;53.448;9.984;2022-08-19T08:46:57;15.83;;;8.40;;
4307;SDS011;2167;53.448;9.984;2022-08-19T08:49:40;14.47;;;7.40;;
4307;SDS011;2167;53.448;9.984;2022-08-19T08:52:15;15.73;;;8.40;;
4307;SDS011;2167;53.448;9.984;2022-08-19T08:54:46;17.10;;;8.40;;
4307;SDS011;2167;53.448;9.984;2022-08-19T08:57:15;12.70;;;8.13;;
4307;SDS011;2167;53.448;9.984;2022-08-19T08:59:47;17.50;;;8.73;;
4307;SDS011;2167;53.448;9.984;2022-08-19T09:02:17;12.77;;;7.70;;
4307;SDS011;2167;53.448;9.984;2022-08-19T09:04:43;15.43;;;8.40;;
4307;SDS011;2167;53.448;9.984;2022-08-19T09:10:01;16.93;;;8.67;;
4307;SDS011;2167;53.448;9.984;2022-08-19T09:15:13;16.27;;;9.63;;
4307;SDS011;2167;53.448;9.984;2022-08-19T09:17:39;18.10;;;9.73;;
4307;SDS011;2167;53.448;9.984;2022-08-19T09:22:39;16.40;;;8.87;;
4307;SDS011;2167;53.448;9.984;2022-08-19T09:25:09;16.33;;;9.27;;
4307;SDS011;2167;53.448;9.984;2022-08-19T09:27:37;19.87;;;9.00;;
4307;SDS011;2167;53.448;9.984;2022-08-19T09:30:06;17.17;;;9.87;;
4307;SDS011;2167;53.448;9.984;2022-08-19T09:32:33;13.73;;;9.10;;
4307;SDS011;2167;53.448;9.984;2022-08-19T09:34:58;22.37;;;10.30;;
4307;SDS011;2167;53.448;9.984;2022-08-19T09:37:26;20.47;;;9.87;;
4307;SDS011;2167;53.448;9.984;2022-08-19T09:39:52;19.97;;;10.07;;
4307;SDS011;2167;53.448;9.984;2022-08-19T09:42:18;18.83;;;9.60;;
4307;SDS011;2167;53.448;9.984;2022-08-19T09:44:44;17.17;;;10.23;;
4307;SDS011;2167;53.448;9.984;2022-08-19T09:47:11;22.53;;;11.00;;
4307;SDS011;2167;53.448;9.984;2022-08-19T09:49:38;18.03;;;10.93;;
4307;SDS011;2167;53.448;9.984;2022-08-19T09:52:08;25.00;;;11.30;;
4307;SDS011;2167;53.448;9.984;2022-08-19T09:54:35;17.10;;;10.13;;
4307;SDS011;2167;53.448;9.984;2022-08-19T09:57:02;16.37;;;10.60;;
4307;SDS011;2167;53.448;9.984;2022-08-19T09:59:28;18.50;;;11.40;;
4307;SDS011;2167;53.448;9.984;2022-08-19T10:01:54;22.20;;;13.20;;
4307;SDS011;2167;53.448;9.984;2022-08-19T10:04:20;19.43;;;11.90;;
4307;SDS011;2167;53.448;9.984;2022-08-19T10:06:47;22.37;;;12.93;;
4307;SDS011;2167;53.448;9.984;2022-08-19T10:09:15;27.83;;;14.30;;
4307;SDS011;2167;53.448;9.984;2022-08-19T10:11:42;21.73;;;12.87;;
4307;SDS011;2167;53.448;9.984;2022-08-19T10:14:14;21.87;;;12.93;;
4307;SDS011;2167;53.448;9.984;2022-08-19T10:16:41;20.07;;;12.60;;
4307;SDS011;2167;53.448;9.984;2022-08-19T10:19:07;23.90;;;14.20;;
4307;SDS011;2167;53.448;9.984;2022-08-19T10:21:34;19.67;;;11.50;;
4307;SDS011;2167;53.448;9.984;2022-08-19T10:24:02;20.87;;;11.50;;
4307;SDS011;2167;53.448;9.984;2022-08-19T10:26:31;27.40;;;14.37;;
4307;SDS011;2167;53.448;9.984;2022-08-19T10:29:04;23.30;;;13.83;;
4307;SDS011;2167;53.448;9.984;2022-08-19T10:31:31;21.87;;;11.77;;
4307;SDS011;2167;53.448;9.984;2022-08-19T10:33:58;22.00;;;11.90;;
4307;SDS011;2167;53.448;9.984;2022-08-19T10:36:27;22.40;;;12.80;;
4307;SDS011;2167;53.448;9.984;2022-08-19T10:38:59;21.93;;;12.23;;
4307;SDS011;2167;53.448;9.984;2022-08-19T10:41:28;23.53;;;12.20;;
4307;SDS011;2167;53.448;9.984;2022-08-19T10:43:57;22.83;;;14.43;;
4307;SDS011;2167;53.448;9.984;2022-08-19T10:46:25;30.70;;;14.70;;
4307;SDS011;2167;53.448;9.984;2022-08-19T10:48:53;23.57;;;14.17;;
4307;SDS011;2167;53.448;9.984;2022-08-19T10:51:19;19.70;;;13.57;;
4307;SDS011;2167;53.448;9.984;2022-08-19T10:54:04;20.80;;;12.50;;
4307;SDS011;2167;53.448;9.984;2022-08-19T10:56:30;23.90;;;12.30;;
4307;SDS011;2167;53.448;9.984;2022-08-19T10:59:16;15.43;;;10.33;;
4307;SDS011;2167;53.448;9.984;2022-08-19T11:01:44;18.30;;;10.50;;
4307;SDS011;2167;53.448;9.984;2022-08-19T11:04:10;19.80;;;11.13;;
4307;SDS011;2167;53.448;9.984;2022-08-19T11:06:39;21.03;;;11.40;;
4307;SDS011;2167;53.448;9.984;2022-08-19T11:09:06;17.73;;;12.17;;
4307;SDS011;2167;53.448;9.984;2022-08-19T11:11:33;16.77;;;10.97;;
4307;SDS011;2167;53.448;9.984;2022-08-19T11:14:04;19.97;;;12.77;;
4307;SDS011;2167;53.448;9.984;2022-08-19T11:16:30;22.10;;;12.83;;
4307;SDS011;2167;53.448;9.984;2022-08-19T11:18:57;19.27;;;12.60;;
4307;SDS011;2167;53.448;9.984;2022-08-19T11:21:25;19.40;;;13.00;;
4307;SDS011;2167;53.448;9.984;2022-08-19T11:23:53;19.13;;;11.60;;
4307;SDS011;2167;53.448;9.984;2022-08-19T11:26:21;20.47;;;12.70;;
4307;SDS011;2167;53.448;9.984;2022-08-19T11:28:47;19.90;;;11.53;;
4307;SDS011;2167;53.448;9.984;2022-08-19T11:31:17;17.00;;;10.30;;
4307;SDS011;2167;53.448;9.984;2022-08-19T11:33:45;21.93;;;10.73;;
4307;SDS011;2167;53.448;9.984;2022-08-19T11:36:11;19.30;;;11.07;;
4307;SDS011;2167;53.448;9.984;2022-08-19T11:38:37;20.40;;;11.17;;
4307;SDS011;2167;53.448;9.984;2022-08-19T11:41:05;23.90;;;13.27;;
4307;SDS011;2167;53.448;9.984;2022-08-19T11:43:35;21.87;;;12.20;;
4307;SDS011;2167;53.448;9.984;2022-08-19T11:46:08;27.33;;;12.67;;
4307;SDS011;2167;53.448;9.984;2022-08-19T11:48:35;23.53;;;12.97;;
4307;SDS011;2167;53.448;9.984;2022-08-19T11:51:09;23.63;;;11.27;;
4307;SDS011;2167;53.448;9.984;2022-08-19T11:53:38;19.30;;;11.90;;
4307;SDS011;2167;53.448;9.984;2022-08-19T11:56:04;17.17;;;10.87;;
4307;SDS011;2167;53.448;9.984;2022-08-19T11:58:31;22.47;;;11.20;;
4307;SDS011;2167;53.448;9.984;2022-08-19T12:00:57;20.20;;;12.30;;
4307;SDS011;2167;53.448;9.984;2022-08-19T12:03:23;23.20;;;11.83;;
4307;SDS011;2167;53.448;9.984;2022-08-19T12:05:50;19.13;;;12.30;;
4307;SDS011;2167;53.448;9.984;2022-08-19T12:08:16;17.40;;;11.80;;
4307;SDS011;2167;53.448;9.984;2022-08-19T12:10:42;23.77;;;13.70;;
4307;SDS011;2167;53.448;9.984;2022-08-19T12:13:09;21.10;;;13.37;;
4307;SDS011;2167;53.448;9.984;2022-08-19T12:15:36;20.10;;;13.10;;
4307;SDS011;2167;53.448;9.984;2022-08-19T12:18:02;24.40;;;12.40;;
4307;SDS011;2167;53.448;9.984;2022-08-19T12:20:29;20.20;;;11.47;;
4307;SDS011;2167;53.448;9.984;2022-08-19T12:22:55;22.80;;;12.63;;
4307;SDS011;2167;53.448;9.984;2022-08-19T12:25:20;16.33;;;10.87;;
4307;SDS011;2167;53.448;9.984;2022-08-19T12:27:46;21.63;;;12.27;;
4307;SDS011;2167;53.448;9.984;2022-08-19T12:30:12;18.60;;;11.97;;
4307;SDS011;2167;53.448;9.984;2022-08-19T12:32:39;18.47;;;11.70;;
4307;SDS011;2167;53.448;9.984;2022-08-19T12:35:06;20.10;;;12.03;;
4307;SDS011;2167;53.448;9.984;2022-08-19T12:37:34;18.67;;;9.90;;
4307;SDS011;2167;53.448;9.984;2022-08-19T12:39:59;15.80;;;9.67;;
4307;SDS011;2167;53.448;9.984;2022-08-19T12:42:25;13.47;;;9.53;;
4307;SDS011;2167;53.448;9.984;2022-08-19T12:44:51;19.20;;;10.57;;
4307;SDS011;2167;53.448;9.984;2022-08-19T12:47:17;13.20;;;9.10;;
4307;SDS011;2167;53.448;9.984;2022-08-19T12:49:43;17.13;;;10.70;;
4307;SDS011;2167;53.448;9.984;2022-08-19T12:52:09;14.73;;;10.40;;
4307;SDS011;2167;53.448;9.984;2022-08-19T12:54:36;14.97;;;10.83;;
4307;SDS011;2167;53.448;9.984;2022-08-19T12:57:05;17.87;;;10.13;;
4307;SDS011;2167;53.448;9.984;2022-08-19T12:59:33;13.73;;;9.67;;
4307;SDS011;2167;53.448;9.984;2022-08-19T13:02:01;14.50;;;10.83;;
4307;SDS011;2167;53.448;9.984;2022-08-19T13:04:30;17.17;;;11.27;;
4307;SDS011;2167;53.448;9.984;2022-08-19T13:06:57;14.10;;;10.00;;
4307;SDS011;2167;53.448;9.984;2022-08-19T13:09:23;16.70;;;11.73;;
4307;SDS011;2167;53.448;9.984;2022-08-19T13:11:49;14.03;;;10.27;;
4307;SDS011;2167;53.448;9.984;2022-08-19T13:14:15;16.40;;;10.97;;
4307;SDS011;2167;53.448;9.984;2022-08-19T13:16:40;19.37;;;13.20;;
4307;SDS011;2167;53.448;9.984;2022-08-19T13:19:06;19.70;;;14.80;;
4307;SDS011;2167;53.448;9.984;2022-08-19T13:21:32;16.30;;;12.13;;
4307;SDS011;2167;53.448;9.984;2022-08-19T13:23:58;18.70;;;12.97;;
4307;SDS011;2167;53.448;9.984;2022-08-19T13:26:24;22.10;;;16.27;;
4307;SDS011;2167;53.448;9.984;2022-08-19T13:28:51;24.20;;;15.33;;
4307;SDS011;2167;53.448;9.984;2022-08-19T13:31:36;16.40;;;12.30;;
4307;SDS011;2167;53.448;9.984;2022-08-19T13:34:27;18.10;;;13.20;;
4307;SDS011;2167;53.448;9.984;2022-08-19T13:36:55;24.73;;;14.33;;
4307;SDS011;2167;53.448;9.984;2022-08-19T13:39:22;18.30;;;13.03;;
4307;SDS011;2167;53.448;9.984;2022-08-19T13:41:48;19.40;;;13.40;;
4307;SDS011;2167;53.448;9.984;2022-08-19T13:44:18;19.27;;;11.30;;
4307;SDS011;2167;53.448;9.984;2022-08-19T13:47:02;14.33;;;10.13;;
4307;SDS011;2167;53.448;9.984;2022-08-19T13:49:32;15.30;;;10.23;;
4307;SDS011;2167;53.448;9.984;2022-08-19T13:52:01;14.67;;;9.30;;
4307;SDS011;2167;53.448;9.984;2022-08-19T13:54:29;15.73;;;10.17;;
4307;SDS011;2167;53.448;9.984;2022-08-19T13:56:55;14.90;;;9.97;;
4307;SDS011;2167;53.448;9.984;2022-08-19T13:59:20;14.80;;;10.13;;
4307;SDS011;2167;53.448;9.984;2022-08-19T14:01:46;10.23;;;8.03;;
4307;SDS011;2167;53.448;9.984;2022-08-19T14:04:11;15.10;;;9.00;;
4307;SDS011;2167;53.448;9.984;2022-08-19T14:06:37;15.93;;;9.90;;
4307;SDS011;2167;53.448;9.984;2022-08-19T14:09:03;12.23;;;8.60;;
4307;SDS011;2167;53.448;9.984;2022-08-19T14:11:29;10.97;;;9.37;;
4307;SDS011;2167;53.448;9.984;2022-08-19T14:13:55;13.27;;;9.20;;
4307;SDS011;2167;53.448;9.984;2022-08-19T14:16:21;11.83;;;7.60;;
4307;SDS011;2167;53.448;9.984;2022-08-19T14:18:46;12.97;;;9.10;;
4307;SDS011;2167;53.448;9.984;2022-08-19T14:21:17;12.00;;;8.43;;
4307;SDS011;2167;53.448;9.984;2022-08-19T14:23:45;14.13;;;8.67;;
4307;SDS011;2167;53.448;9.984;2022-08-19T14:26:12;16.23;;;8.47;;
4307;SDS011;2167;53.448;9.984;2022-08-19T14:28:39;10.10;;;8.03;;
4307;SDS011;2167;53.448;9.984;2022-08-19T14:31:07;12.27;;;8.97;;
4307;SDS011;2167;53.448;9.984;2022-08-19T14:33:33;12.17;;;9.70;;
4307;SDS011;2167;53.448;9.984;2022-08-19T14:35:59;14.10;;;10.00;;
4307;SDS011;2167;53.448;9.984;2022-08-19T14:38:25;16.33;;;8.10;;
4307;SDS011;2167;53.448;9.984;2022-08-19T14:40:51;10.10;;;8.83;;
4307;SDS011;2167;53.448;9.984;2022-08-19T14:43:17;11.23;;;8.13;;
4307;SDS011;2167;53.448;9.984;2022-08-19T14:45:43;12.63;;;8.60;;
4307;SDS011;2167;53.448;9.984;2022-08-19T14:48:09;13.30;;;6.83;;
4307;SDS011;2167;53.448;9.984;2022-08-19T14:50:35;10.27;;;7.83;;
4307;SDS011;2167;53.448;9.984;2022-08-19T14:53:06;12.53;;;8.60;;
4307;SDS011;2167;53.448;9.984;2022-08-19T14:55:33;8.87;;;7.37;;
4307;SDS011;2167;53.448;9.984;2022-08-19T14:57:59;12.90;;;7.93;;
4307;SDS011;2167;53.448;9.984;2022-08-19T15:00:26;10.77;;;8.37;;
4307;SDS011;2167;53.448;9.984;2022-08-19T15:02:52;11.17;;;8.20;;
4307;SDS011;2167;53.448;9.984;2022-08-19T15:05:19;8.43;;;7.20;;
4307;SDS011;2167;53.448;9.984;2022-08-19T15:07:45;8.23;;;6.57;;
4307;SDS011;2167;53.448;9.984;2022-08-19T15:10:12;9.27;;;6.90;;